createdAt,value
2023-09-21T00:01:13.225Z,2.10
2023-09-21T00:03:42.024Z,1.90
2023-09-21T00:06:11.749Z,2.23
2023-09-21T00:08:40.126Z,2.00
2023-09-21T00:11:08.699Z,2.08
2023-09-21T00:13:40.418Z,1.90
2023-09-21T00:16:13.451Z,1.85
2023-09-21T00:18:44.212Z,2.07
2023-09-21T00:21:14.853Z,2.30
2023-09-21T00:23:45.134Z,2.20
2023-09-21T00:26:15.304Z,1.95
2023-09-21T00:28:48.015Z,2.28
2023-09-21T00:31:16.122Z,2.20
2023-09-21T00:33:44.206Z,2.17
2023-09-21T00:36:14.698Z,2.50
2023-09-21T00:38:44.993Z,2.30
2023-09-21T00:41:13.506Z,2.53
2023-09-21T00:43:42.482Z,2.40
2023-09-21T00:46:11.395Z,2.20
2023-09-21T00:48:44.141Z,2.38
2023-09-21T00:51:15.757Z,2.03
2023-09-21T00:53:47.082Z,2.65
2023-09-21T00:56:19.022Z,2.20
2023-09-21T00:58:50.091Z,2.25
2023-09-21T01:01:30.445Z,2.38
2023-09-21T01:04:08.088Z,2.15
2023-09-21T01:06:36.480Z,2.30
2023-09-21T01:09:09.571Z,1.97
2023-09-21T01:11:39.547Z,2.10
2023-09-21T01:14:08.153Z,2.00
2023-09-21T01:16:36.280Z,1.98
2023-09-21T01:19:04.767Z,2.33
2023-09-21T01:21:39.076Z,2.00
2023-09-21T01:24:12.553Z,2.10
2023-09-21T01:26:41.221Z,2.00
2023-09-21T01:29:10.577Z,2.00
2023-09-21T01:31:39.447Z,2.03
2023-09-21T01:34:07.616Z,2.37
2023-09-21T01:36:36.478Z,2.10
2023-09-21T01:39:09.586Z,2.10
2023-09-21T01:41:39.233Z,2.10
2023-09-21T01:44:08.621Z,2.08
2023-09-21T01:46:37.123Z,1.90
2023-09-21T01:49:06.569Z,1.88
2023-09-21T01:51:38.958Z,1.75
2023-09-21T01:54:08.668Z,1.80
2023-09-21T01:56:38.281Z,2.00
2023-09-21T01:59:06.878Z,2.10
2023-09-21T02:01:35.266Z,1.88
2023-09-21T02:04:04.688Z,2.25
2023-09-21T02:06:32.669Z,2.22
2023-09-21T02:09:01.288Z,2.17
2023-09-21T02:11:29.380Z,2.10
2023-09-21T02:13:58.599Z,2.05
2023-09-21T02:16:26.502Z,1.95
2023-09-21T02:18:54.515Z,1.95
2023-09-21T02:21:22.660Z,1.92
2023-09-21T02:23:50.774Z,2.13
2023-09-21T02:26:18.667Z,2.10
2023-09-21T02:28:46.797Z,2.25
2023-09-21T02:31:16.496Z,2.00
2023-09-21T02:33:44.891Z,1.75
2023-09-21T02:36:19.172Z,2.13
2023-09-21T02:38:47.738Z,2.08
2023-09-21T02:41:16.391Z,1.60
2023-09-21T02:43:44.502Z,1.70
2023-09-21T02:46:14.353Z,2.00
2023-09-21T02:48:44.378Z,2.10
2023-09-21T02:51:12.802Z,1.70
2023-09-21T02:53:40.908Z,1.33
2023-09-21T02:56:10.481Z,1.25
2023-09-21T02:58:38.584Z,1.50
2023-09-21T03:01:06.706Z,0.97
2023-09-21T03:03:36.968Z,1.20
2023-09-21T03:06:07.057Z,1.20
2023-09-21T03:08:35.238Z,1.50
2023-09-21T03:11:03.444Z,1.50
2023-09-21T03:13:31.321Z,1.50
2023-09-21T03:16:00.904Z,1.83
2023-09-21T03:18:32.560Z,1.95
2023-09-21T03:21:01.325Z,2.10
2023-09-21T03:23:31.348Z,2.50
2023-09-21T03:25:59.446Z,2.17
2023-09-21T03:28:27.548Z,2.33
2023-09-21T03:30:58.004Z,2.42
2023-09-21T03:33:26.605Z,2.53
2023-09-21T03:35:55.672Z,1.92
2023-09-21T03:38:24.290Z,2.23
2023-09-21T03:40:58.997Z,2.42
2023-09-21T03:43:27.833Z,2.50
2023-09-21T03:45:56.254Z,2.67
2023-09-21T03:48:24.208Z,2.70
2023-09-21T03:50:53.323Z,2.10
2023-09-21T03:53:21.695Z,2.50
2023-09-21T03:55:50.771Z,2.40
2023-09-21T03:58:20.962Z,2.50
2023-09-21T04:00:50.162Z,2.63
2023-09-21T04:03:20.269Z,2.73
2023-09-21T04:05:53.481Z,2.70
2023-09-21T04:08:21.588Z,2.90
2023-09-21T04:10:49.562Z,2.45
2023-09-21T04:13:17.350Z,2.47
2023-09-21T04:15:46.583Z,2.33
2023-09-21T04:18:14.594Z,2.65
2023-09-21T04:20:45.927Z,2.30
2023-09-21T04:23:14.037Z,2.10
2023-09-21T04:25:48.380Z,2.08
2023-09-21T04:28:16.523Z,2.40
2023-09-21T04:30:45.910Z,2.30
2023-09-21T04:33:13.980Z,2.10
2023-09-21T04:35:41.983Z,2.13
2023-09-21T04:38:10.144Z,1.90
2023-09-21T04:40:38.042Z,2.13
2023-09-21T04:43:06.098Z,1.70
2023-09-21T04:45:34.337Z,2.08
2023-09-21T04:48:06.220Z,2.05
2023-09-21T04:50:36.144Z,2.50
2023-09-21T04:53:25.423Z,1.63
2023-09-21T04:55:53.419Z,1.75
2023-09-21T04:58:22.023Z,1.98
2023-09-21T05:00:50.900Z,2.20
2023-09-21T05:03:20.753Z,1.90
2023-09-21T05:05:50.366Z,2.10
2023-09-21T05:08:18.411Z,2.10
2023-09-21T05:10:46.312Z,2.00
2023-09-21T05:13:14.266Z,1.95
2023-09-21T05:15:42.630Z,2.60
2023-09-21T05:18:10.689Z,2.20
2023-09-21T05:20:40.046Z,2.10
2023-09-21T05:23:08.165Z,2.53
2023-09-21T05:25:36.101Z,1.77
2023-09-21T05:28:04.358Z,1.70
2023-09-21T05:30:33.227Z,1.50
2023-09-21T05:33:02.531Z,1.55
2023-09-21T05:35:30.787Z,1.00
2023-09-21T05:38:00.118Z,1.10
2023-09-21T05:40:28.234Z,1.10
2023-09-21T05:42:58.569Z,1.23
2023-09-21T05:45:28.463Z,1.42
2023-09-21T05:47:56.951Z,0.98
2023-09-21T05:50:25.531Z,1.20
2023-09-21T05:52:55.701Z,1.40
2023-09-21T05:55:25.012Z,0.90
2023-09-21T05:57:53.043Z,1.30
2023-09-21T06:00:22.307Z,1.08
2023-09-21T06:02:55.831Z,1.20
2023-09-21T06:05:23.883Z,1.42
2023-09-21T06:07:52.321Z,1.37
2023-09-21T06:10:20.498Z,1.00
2023-09-21T06:12:49.874Z,1.33
2023-09-21T06:15:18.346Z,1.00
2023-09-21T06:17:47.318Z,1.30
2023-09-21T06:20:16.087Z,1.33
2023-09-21T06:22:44.083Z,1.42
2023-09-21T06:25:13.154Z,1.30
2023-09-21T06:27:42.724Z,1.25
2023-09-21T06:30:14.024Z,1.27
2023-09-21T06:32:42.021Z,1.57
2023-09-21T06:35:10.854Z,1.20
2023-09-21T06:37:38.829Z,1.48
2023-09-21T06:40:08.277Z,1.08
2023-09-21T06:42:36.232Z,1.20
2023-09-21T06:45:04.323Z,1.53
2023-09-21T06:47:33.899Z,1.50
2023-09-21T06:50:02.395Z,1.75
2023-09-21T06:52:30.560Z,1.80
2023-09-21T06:55:01.496Z,1.40
2023-09-21T06:57:30.192Z,1.30
2023-09-21T06:59:58.279Z,1.23
2023-09-21T07:02:26.556Z,1.30
2023-09-21T07:04:56.130Z,1.10
2023-09-21T07:07:24.118Z,1.33
2023-09-21T07:09:51.961Z,1.30
2023-09-21T07:12:21.479Z,1.45
2023-09-21T07:14:50.668Z,1.58
2023-09-21T07:17:18.906Z,1.15
2023-09-21T07:19:46.933Z,1.00
2023-09-21T07:22:16.210Z,1.20
2023-09-21T07:24:44.222Z,1.40
2023-09-21T07:27:23.582Z,1.10
2023-09-21T07:29:52.337Z,1.50
2023-09-21T07:32:21.861Z,1.25
2023-09-21T07:34:49.972Z,1.63
2023-09-21T07:37:19.848Z,1.70
2023-09-21T07:39:47.793Z,2.45
2023-09-21T07:42:16.100Z,3.22
2023-09-21T07:44:45.308Z,1.30
2023-09-21T07:47:13.818Z,0.80
2023-09-21T07:49:41.995Z,1.13
2023-09-21T07:52:09.920Z,1.17
2023-09-21T07:54:39.177Z,1.10
2023-09-21T07:57:07.527Z,1.30
2023-09-21T07:59:35.508Z,1.00
2023-09-21T08:02:04.611Z,1.23
2023-09-21T08:04:32.776Z,1.10
2023-09-21T08:07:02.033Z,1.08
2023-09-21T08:09:32.896Z,1.10
2023-09-21T08:12:03.519Z,0.90
2023-09-21T08:14:33.338Z,1.02
2023-09-21T08:17:01.807Z,2.72
2023-09-21T08:19:29.759Z,1.30
2023-09-21T08:21:59.356Z,1.23
2023-09-21T08:24:27.432Z,1.27
2023-09-21T08:26:55.591Z,1.20
2023-09-21T08:29:24.939Z,1.48
2023-09-21T08:31:53.652Z,1.00
2023-09-21T08:34:21.795Z,1.27
2023-09-21T08:36:49.900Z,0.90
2023-09-21T08:39:18.593Z,0.80
2023-09-21T08:41:49.702Z,1.23
2023-09-21T08:44:20.096Z,0.93
2023-09-21T08:46:50.226Z,1.00
2023-09-21T08:49:19.085Z,1.40
2023-09-21T08:51:48.225Z,1.20
2023-09-21T08:54:16.819Z,1.20
2023-09-21T08:56:48.469Z,1.33
2023-09-21T08:59:21.426Z,1.33
2023-09-21T09:01:50.941Z,1.10
2023-09-21T09:04:21.237Z,1.30
2023-09-21T09:06:49.534Z,1.40
2023-09-21T09:09:21.719Z,1.40
2023-09-21T09:11:49.870Z,1.30
2023-09-21T09:14:23.780Z,1.30
2023-09-21T09:16:53.219Z,1.27
2023-09-21T09:19:23.701Z,1.58
2023-09-21T09:21:55.474Z,1.20
2023-09-21T09:24:31.067Z,1.30
2023-09-21T09:27:04.901Z,1.03
2023-09-21T09:29:34.564Z,1.20
2023-09-21T09:32:06.882Z,1.50
2023-09-21T09:34:36.130Z,1.20
2023-09-21T09:37:04.610Z,1.63
2023-09-21T09:39:33.771Z,1.70
2023-09-21T09:42:04.765Z,1.33
2023-09-21T09:44:42.726Z,1.40
2023-09-21T09:47:13.685Z,1.20
2023-09-21T09:49:46.904Z,1.38
2023-09-21T09:52:19.759Z,2.03
2023-09-21T09:54:49.543Z,1.63
2023-09-21T09:57:22.599Z,1.83
2023-09-21T09:59:54.355Z,1.85
2023-09-21T10:02:23.863Z,1.65
2023-09-21T10:04:52.630Z,1.90
2023-09-21T10:07:20.725Z,1.65
2023-09-21T10:09:49.364Z,2.17
2023-09-21T10:12:20.630Z,1.90
2023-09-21T10:14:51.359Z,2.55
2023-09-21T10:17:29.517Z,2.40
2023-09-21T10:20:16.294Z,2.47
2023-09-21T10:22:45.337Z,2.25
2023-09-21T10:25:17.540Z,2.70
2023-09-21T10:27:48.563Z,2.45
2023-09-21T10:30:20.476Z,2.03
2023-09-21T10:32:51.141Z,1.92
2023-09-21T10:35:46.734Z,2.22
2023-09-21T10:38:18.168Z,1.50
2023-09-21T10:40:52.574Z,1.65
2023-09-21T10:43:48.657Z,1.70
2023-09-21T10:46:22.680Z,1.83
2023-09-21T10:49:15.624Z,1.58
2023-09-21T10:51:45.591Z,1.50
2023-09-21T10:54:22.149Z,1.88
2023-09-21T10:56:50.262Z,1.93
2023-09-21T10:59:28.659Z,1.50
2023-09-21T11:02:04.928Z,1.83
2023-09-21T11:04:35.054Z,1.60
2023-09-21T11:07:04.390Z,1.75
2023-09-21T11:09:34.397Z,1.50
2023-09-21T11:12:07.296Z,1.30
2023-09-21T11:14:35.254Z,1.20
2023-09-21T11:17:06.049Z,1.30
2023-09-21T11:19:38.729Z,1.35
2023-09-21T11:22:08.735Z,1.20
2023-09-21T11:24:38.403Z,1.20
2023-09-21T11:27:10.481Z,1.42
2023-09-21T11:29:41.054Z,1.42
2023-09-21T11:32:10.376Z,1.30
2023-09-21T11:34:42.106Z,1.37
2023-09-21T11:37:14.541Z,1.23
2023-09-21T11:39:50.585Z,1.30
2023-09-21T11:42:20.799Z,1.27
2023-09-21T11:44:51.853Z,1.10
2023-09-21T11:47:21.065Z,1.10
2023-09-21T11:49:56.945Z,1.10
2023-09-21T11:52:26.005Z,1.15
2023-09-21T11:54:57.883Z,1.00
2023-09-21T11:57:26.065Z,1.08
2023-09-21T11:59:57.763Z,1.00
2023-09-21T12:02:27.422Z,0.80
2023-09-21T12:05:10.765Z,1.20
2023-09-21T12:07:51.396Z,1.30
2023-09-21T12:10:19.619Z,1.20
2023-09-21T12:12:48.052Z,1.10
2023-09-21T12:15:17.120Z,1.10
2023-09-21T12:17:46.271Z,1.20
2023-09-21T12:20:21.900Z,1.20
2023-09-21T12:22:50.109Z,1.30
2023-09-21T12:25:21.547Z,1.30
2023-09-21T12:27:49.526Z,1.20
2023-09-21T12:30:20.720Z,1.30
2023-09-21T12:32:51.083Z,1.30
2023-09-21T12:35:27.031Z,1.70
2023-09-21T12:37:55.223Z,1.23
2023-09-21T12:40:23.427Z,1.42
2023-09-21T12:42:53.339Z,1.10
2023-09-21T12:45:22.552Z,1.10
2023-09-21T12:47:51.628Z,1.10
2023-09-21T12:50:21.229Z,1.17
2023-09-21T12:52:49.913Z,1.15
2023-09-21T12:55:23.445Z,1.38
2023-09-21T12:57:51.605Z,1.10
2023-09-21T13:00:20.273Z,1.33
2023-09-21T13:02:48.420Z,1.40
2023-09-21T13:05:17.002Z,1.00
2023-09-21T13:07:48.757Z,1.10
2023-09-21T13:10:20.553Z,1.00
2023-09-21T13:12:49.226Z,0.90
2023-09-21T13:15:17.437Z,1.00
2023-09-21T13:17:45.425Z,1.10
2023-09-21T13:20:21.189Z,1.00
2023-09-21T13:22:51.838Z,1.10
2023-09-21T13:25:19.658Z,1.13
2023-09-21T13:27:48.028Z,1.00
2023-09-21T13:30:19.313Z,1.20
2023-09-21T13:32:48.537Z,1.10
2023-09-21T13:35:16.980Z,0.85
2023-09-21T13:37:47.627Z,0.90
2023-09-21T13:40:20.050Z,1.00
2023-09-21T13:42:50.498Z,1.20
2023-09-21T13:45:18.870Z,1.05
2023-09-21T13:47:48.424Z,1.13
2023-09-21T13:50:16.502Z,1.00
2023-09-21T13:52:48.981Z,1.40
2023-09-21T13:55:20.824Z,1.13
2023-09-21T13:57:50.957Z,1.00
2023-09-21T14:00:21.505Z,1.52
2023-09-21T14:02:51.323Z,1.00
2023-09-21T14:05:23.266Z,1.00
2023-09-21T14:07:51.834Z,1.00
2023-09-21T14:10:21.345Z,1.15
2023-09-21T14:12:51.797Z,1.10
2023-09-21T14:15:22.273Z,0.88
2023-09-21T14:17:51.265Z,1.20
2023-09-21T14:20:22.444Z,1.20
2023-09-21T14:22:50.683Z,1.10
2023-09-21T14:25:18.636Z,1.10
2023-09-21T14:27:47.953Z,1.20
2023-09-21T14:30:17.331Z,1.27
2023-09-21T14:32:48.092Z,0.88
2023-09-21T14:35:16.446Z,0.98
2023-09-21T14:37:44.362Z,0.90
2023-09-21T14:40:13.474Z,1.00
2023-09-21T14:42:41.653Z,1.10
2023-09-21T14:45:12.185Z,0.98
2023-09-21T14:47:42.688Z,0.93
2023-09-21T14:50:12.081Z,1.10
2023-09-21T14:52:40.457Z,1.20
2023-09-21T14:55:09.936Z,1.10
2023-09-21T14:57:44.400Z,1.30
2023-09-21T15:00:16.316Z,1.35
2023-09-21T15:02:45.384Z,1.20
2023-09-21T15:05:13.510Z,0.90
2023-09-21T15:07:41.760Z,1.10
2023-09-21T15:10:11.076Z,1.00
2023-09-21T15:12:39.922Z,1.10
2023-09-21T15:15:11.880Z,1.10
2023-09-21T15:17:44.652Z,0.90
2023-09-21T15:20:13.669Z,1.10
2023-09-21T15:22:41.670Z,0.90
2023-09-21T15:25:10.657Z,1.33
2023-09-21T15:27:38.590Z,1.17
2023-09-21T15:30:08.086Z,1.20
2023-09-21T15:32:36.118Z,1.03
2023-09-21T15:35:06.116Z,1.10
2023-09-21T15:37:34.834Z,1.25
2023-09-21T15:40:02.809Z,0.90
2023-09-21T15:42:31.091Z,1.02
2023-09-21T15:44:59.971Z,0.90
2023-09-21T15:47:28.498Z,1.00
2023-09-21T15:49:57.022Z,1.20
2023-09-21T15:52:28.394Z,1.00
2023-09-21T15:54:56.260Z,1.10
2023-09-21T15:57:24.188Z,1.00
2023-09-21T15:59:52.179Z,0.90
2023-09-21T16:02:20.093Z,1.40
2023-09-21T16:04:48.847Z,1.25
2023-09-21T16:07:19.018Z,1.10
2023-09-21T16:09:48.412Z,1.00
2023-09-21T16:12:16.324Z,1.20
2023-09-21T16:14:46.343Z,1.30
2023-09-21T16:17:14.225Z,1.00
2023-09-21T16:19:42.113Z,1.33
2023-09-21T16:22:10.058Z,1.30
2023-09-21T16:24:38.319Z,1.30
2023-09-21T16:27:07.908Z,1.10
2023-09-21T16:29:36.127Z,1.23
2023-09-21T16:32:05.381Z,1.40
2023-09-21T16:34:33.347Z,1.30
2023-09-21T16:37:01.232Z,1.23
2023-09-21T16:39:29.208Z,1.05
2023-09-21T16:41:57.203Z,1.23
2023-09-21T16:44:26.752Z,1.13
2023-09-21T16:46:54.859Z,1.20
2023-09-21T16:49:22.819Z,1.30
2023-09-21T16:51:50.770Z,1.20
2023-09-21T16:54:18.751Z,1.17
2023-09-21T16:56:46.804Z,0.90
2023-09-21T16:59:14.689Z,0.97
2023-09-21T17:01:44.101Z,0.90
2023-09-21T17:04:12.213Z,1.40
2023-09-21T17:06:40.315Z,1.40
2023-09-21T17:09:09.636Z,1.55
2023-09-21T17:11:37.793Z,1.17
2023-09-21T17:14:06.057Z,1.30
2023-09-21T17:16:34.249Z,1.50
2023-09-21T17:19:07.144Z,2.00
2023-09-21T17:21:35.653Z,2.35
2023-09-21T17:24:03.796Z,1.80
2023-09-21T17:26:32.028Z,1.05
2023-09-21T17:29:03.015Z,1.50
2023-09-21T17:31:31.395Z,1.20
2023-09-21T17:33:59.430Z,1.30
2023-09-21T17:36:30.804Z,1.40
2023-09-21T17:39:00.605Z,1.20
2023-09-21T17:41:29.018Z,2.28
2023-09-21T17:43:56.976Z,2.03
2023-09-21T17:46:27.840Z,1.40
2023-09-21T17:48:58.407Z,2.10
2023-09-21T17:51:30.167Z,1.70
2023-09-21T17:54:04.348Z,1.30
2023-09-21T17:56:33.860Z,1.33
2023-09-21T17:59:02.828Z,1.90
2023-09-21T18:01:32.602Z,1.40
2023-09-21T18:04:04.173Z,1.65
2023-09-21T18:06:37.012Z,1.23
2023-09-21T18:09:08.121Z,1.58
2023-09-21T18:11:39.615Z,1.90
2023-09-21T18:14:10.835Z,1.80
2023-09-21T18:16:40.638Z,1.70
2023-09-21T18:19:08.617Z,1.80
2023-09-21T18:21:46.554Z,1.92
2023-09-21T18:24:15.927Z,1.63
2023-09-21T18:26:43.870Z,2.07
2023-09-21T18:29:14.172Z,2.00
2023-09-21T18:31:46.189Z,2.05
2023-09-21T18:34:14.100Z,2.25
2023-09-21T18:36:44.004Z,2.28
2023-09-21T18:39:15.110Z,2.20
2023-09-21T18:41:45.953Z,2.22
2023-09-21T18:44:14.351Z,2.60
2023-09-21T18:46:42.756Z,2.50
2023-09-21T18:49:12.709Z,2.20
2023-09-21T18:51:40.908Z,2.33
2023-09-21T18:57:02.323Z,2.40
2023-09-21T18:59:31.084Z,2.85
2023-09-21T19:01:59.237Z,2.90
2023-09-21T19:04:33.189Z,2.60
2023-09-21T19:07:01.176Z,2.88
2023-09-21T19:09:30.726Z,3.33
2023-09-21T19:12:02.562Z,2.90
2023-09-21T19:14:35.654Z,2.80
2023-09-21T19:17:06.934Z,2.60
2023-09-21T19:19:39.401Z,2.80
2023-09-21T19:22:13.486Z,2.97
2023-09-21T19:24:45.969Z,2.70
2023-09-21T19:27:24.616Z,3.13
2023-09-21T19:29:55.484Z,3.10
2023-09-21T19:32:23.999Z,3.13
2023-09-21T19:34:57.159Z,3.00
2023-09-21T19:37:25.241Z,2.70
2023-09-21T19:39:57.945Z,3.30
2023-09-21T19:42:29.033Z,3.33
2023-09-21T19:45:01.137Z,3.72
2023-09-21T19:47:31.075Z,3.33
2023-09-21T19:50:01.270Z,3.40
2023-09-21T19:52:44.134Z,3.42
2023-09-21T19:55:13.870Z,3.77
2023-09-21T19:57:46.402Z,4.03
2023-09-21T20:00:20.342Z,4.60
2023-09-21T20:03:00.163Z,4.22
2023-09-21T20:05:30.111Z,3.50
2023-09-21T20:08:04.513Z,3.40
2023-09-21T20:10:34.852Z,3.25
2023-09-21T20:13:04.864Z,4.32
2023-09-21T20:15:33.114Z,3.75
2023-09-21T20:18:04.382Z,4.00
2023-09-21T20:20:35.826Z,6.37
2023-09-21T20:23:05.765Z,5.70
2023-09-21T20:25:39.638Z,4.57
2023-09-21T20:28:10.788Z,4.05
2023-09-21T20:30:39.880Z,4.50
2023-09-21T20:33:08.031Z,5.10
2023-09-21T20:35:35.983Z,5.07
2023-09-21T20:38:04.044Z,5.13
2023-09-21T20:40:31.974Z,4.95
2023-09-21T20:43:01.280Z,5.28
2023-09-21T20:45:29.242Z,6.43
2023-09-21T20:47:57.858Z,7.32
2023-09-21T20:50:25.944Z,6.70
2023-09-21T20:52:53.898Z,6.30
2023-09-21T20:55:21.943Z,7.35
2023-09-21T20:57:50.084Z,6.30
2023-09-21T21:00:19.622Z,5.75
2023-09-21T21:02:49.587Z,6.60
2023-09-21T21:05:17.613Z,6.15
2023-09-21T21:07:45.780Z,6.78
2023-09-21T21:10:13.630Z,6.83
2023-09-21T21:12:41.569Z,8.15
2023-09-21T21:15:10.787Z,8.02
2023-09-21T21:17:40.069Z,7.47
2023-09-21T21:20:09.293Z,7.00
2023-09-21T21:22:37.257Z,6.63
2023-09-21T21:25:05.523Z,5.93
2023-09-21T21:27:33.854Z,5.78
2023-09-21T21:30:04.075Z,5.40
2023-09-21T21:32:31.956Z,4.70
2023-09-21T21:35:01.372Z,4.50
2023-09-21T21:37:29.441Z,3.85
2023-09-21T21:39:57.710Z,3.58
2023-09-21T21:42:25.639Z,2.53
2023-09-21T21:44:53.516Z,2.80
2023-09-21T21:47:21.441Z,2.60
2023-09-21T21:49:49.463Z,2.67
2023-09-21T21:52:18.754Z,3.25
2023-09-21T21:54:46.767Z,3.35
2023-09-21T21:57:15.205Z,3.90
2023-09-21T21:59:43.496Z,3.50
2023-09-21T22:02:11.420Z,3.90
2023-09-21T22:04:40.341Z,4.47
2023-09-21T22:07:08.379Z,4.15
2023-09-21T22:09:37.733Z,5.15
2023-09-21T22:12:05.877Z,3.90
2023-09-21T22:14:36.061Z,3.63
2023-09-21T22:17:04.890Z,3.30
2023-09-21T22:19:33.208Z,3.20
2023-09-21T22:22:02.542Z,3.03
2023-09-21T22:24:30.787Z,3.30
2023-09-21T22:27:00.232Z,3.00
2023-09-21T22:29:28.294Z,3.90
2023-09-21T22:31:56.255Z,3.90
2023-09-21T22:34:26.741Z,4.28
2023-09-21T22:36:54.685Z,4.13
2023-09-21T22:39:22.562Z,4.25
2023-09-21T22:41:50.453Z,4.50
2023-09-21T22:44:19.962Z,4.13
2023-09-21T22:46:49.982Z,4.60
2023-09-21T22:49:17.831Z,3.67
2023-09-21T22:51:45.677Z,4.07
2023-09-21T22:54:14.742Z,4.68
2023-09-21T22:56:42.676Z,4.38
2023-09-21T22:59:10.765Z,3.90
2023-09-21T23:01:41.410Z,3.63
2023-09-21T23:04:09.437Z,3.72
2023-09-21T23:06:37.447Z,3.75
2023-09-21T23:09:06.726Z,3.95
2023-09-21T23:11:34.800Z,3.92
2023-09-21T23:14:02.688Z,3.67
2023-09-21T23:16:31.092Z,4.03
2023-09-21T23:19:02.432Z,3.70
2023-09-21T23:21:30.561Z,3.80
2023-09-21T23:23:58.452Z,3.30
2023-09-21T23:26:28.763Z,3.30
2023-09-21T23:28:57.142Z,3.35
2023-09-21T23:31:25.213Z,3.38
2023-09-21T23:33:53.315Z,3.10
2023-09-21T23:36:24.516Z,3.10
2023-09-21T23:38:53.286Z,2.80
2023-09-21T23:41:22.046Z,2.72
2023-09-21T23:43:49.956Z,2.90
2023-09-21T23:46:18.099Z,2.90
2023-09-21T23:48:46.032Z,2.60
2023-09-21T23:51:13.962Z,3.23
2023-09-21T23:53:43.373Z,2.85
2023-09-21T23:56:12.149Z,2.83
2023-09-21T23:58:39.973Z,2.65
